Time;durP1;ratioP1;P1;durP2;ratioP2;P2;SDS_P1;SDS_P2;PMS_P1;PMS_P2;Temp;Humidity;BMP_temperature;BMP_pressure;BME280_temperature;BME280_humidity;BME280_pressure;Samples;Min_cycle;Max_cycle;Signal;HPM_P1;HPM_P2
2024/01/13 00:02:09;;;;;;;856.72;85.93;;;;;;;;;;4926664;28;20092;-80
2024/01/13 00:04:36;;;;;;;869.88;89.85;;;;;;;;;;4930349;28;20041;-80
2024/01/13 00:07:02;;;;;;;907.63;93.15;;;;;;;;;;4928561;28;20148;-80
2024/01/13 00:09:29;;;;;;;881.40;88.38;;;;;;;;;;4930323;28;22008;-80
2024/01/13 00:11:55;;;;;;;901.03;92.88;;;;;;;;;;4931161;28;20867;-80
2024/01/13 00:14:22;;;;;;;914.72;91.13;;;;;;;;;;4930818;28;20862;-80
2024/01/13 00:16:49;;;;;;;863.83;86.72;;;;;;;;;;4929515;28;20029;-79
2024/01/13 00:19:16;;;;;;;873.95;89.15;;;;;;;;;;4928840;28;20037;-79
2024/01/13 00:21:43;;;;;;;879.60;87.63;;;;;;;;;;4933197;28;20033;-80
2024/01/13 00:24:10;;;;;;;877.72;88.13;;;;;;;;;;4929123;28;20127;-79
2024/01/13 00:26:36;;;;;;;858.97;84.63;;;;;;;;;;4934391;28;20033;-79
2024/01/13 00:29:03;;;;;;;911.25;92.65;;;;;;;;;;4933226;28;20064;-79
2024/01/13 00:31:30;;;;;;;894.60;90.97;;;;;;;;;;4932774;28;20052;-79
2024/01/13 00:33:57;;;;;;;874.53;88.00;;;;;;;;;;4934157;28;20044;-80
2024/01/13 00:36:24;;;;;;;879.60;87.22;;;;;;;;;;4932965;28;20148;-79
2024/01/13 00:38:50;;;;;;;878.15;88.05;;;;;;;;;;4929795;28;21012;-80
2024/01/13 00:41:17;;;;;;;861.60;85.85;;;;;;;;;;4934760;28;20036;-79
2024/01/13 00:43:44;;;;;;;891.15;91.13;;;;;;;;;;4935297;28;20040;-80
2024/01/13 00:46:11;;;;;;;866.88;85.93;;;;;;;;;;4933397;28;21064;-80
2024/01/13 00:48:37;;;;;;;872.13;87.28;;;;;;;;;;4934028;28;20099;-80
2024/01/13 00:51:12;;;;;;;880.25;89.13;;;;;;;;;;4924084;28;20044;-80
2024/01/13 00:53:40;;;;;;;917.30;92.45;;;;;;;;;;4930100;28;20045;-80
2024/01/13 00:56:08;;;;;;;916.00;93.63;;;;;;;;;;4932584;28;20134;-80
2024/01/13 00:58:36;;;;;;;894.05;91.20;;;;;;;;;;4932678;28;21030;-80
2024/01/13 01:01:13;;;;;;;857.38;85.40;;;;;;;;;;4931994;28;20041;-80
2024/01/13 01:03:43;;;;;;;886.20;87.68;;;;;;;;;;4919443;28;20702;-80
2024/01/13 01:06:10;;;;;;;859.47;84.45;;;;;;;;;;4933366;28;21236;-80
2024/01/13 01:08:37;;;;;;;870.85;86.53;;;;;;;;;;4919816;28;20388;-80
2024/01/13 01:11:07;;;;;;;882.90;88.28;;;;;;;;;;4918259;28;20311;-80
2024/01/13 01:13:34;;;;;;;889.97;89.15;;;;;;;;;;4935322;28;20055;-80
2024/01/13 01:16:01;;;;;;;878.60;88.25;;;;;;;;;;4932628;28;20108;-80
2024/01/13 01:18:28;;;;;;;874.65;87.53;;;;;;;;;;4932964;28;20060;-80
2024/01/13 01:21:10;;;;;;;870.70;88.28;;;;;;;;;;4929406;28;20044;-80
2024/01/13 01:23:37;;;;;;;916.00;92.22;;;;;;;;;;4932980;28;20961;-80
2024/01/13 01:26:04;;;;;;;876.95;88.32;;;;;;;;;;4918940;28;20037;-79
2024/01/13 01:28:31;;;;;;;877.80;87.75;;;;;;;;;;4931887;28;21180;-80
2024/01/13 01:31:02;;;;;;;900.60;90.82;;;;;;;;;;4928310;28;20122;-80
2024/01/13 01:33:29;;;;;;;903.15;90.18;;;;;;;;;;4929265;28;20041;-80
2024/01/13 01:35:56;;;;;;;879.53;88.50;;;;;;;;;;4929675;28;20934;-80
2024/01/13 01:38:23;;;;;;;904.90;92.00;;;;;;;;;;4929591;28;20995;-80
2024/01/13 01:41:07;;;;;;;881.58;89.00;;;;;;;;;;4932320;28;21399;-80
2024/01/13 01:43:34;;;;;;;916.78;91.28;;;;;;;;;;4935039;28;20154;-80
2024/01/13 01:46:01;;;;;;;888.25;90.00;;;;;;;;;;4932405;28;20055;-80
2024/01/13 01:48:29;;;;;;;876.35;87.95;;;;;;;;;;4931408;28;20266;-80
2024/01/13 01:51:05;;;;;;;886.42;88.93;;;;;;;;;;4932435;28;20033;-80
2024/01/13 01:53:32;;;;;;;958.55;97.60;;;;;;;;;;4923489;28;20071;-80
2024/01/13 01:56:00;;;;;;;880.67;87.40;;;;;;;;;;4915012;28;21024;-80
2024/01/13 01:58:26;;;;;;;888.95;88.25;;;;;;;;;;4929918;28;20135;-80
2024/01/13 02:01:01;;;;;;;940.40;100.72;;;;;;;;;;4943941;22;20711;-88
2024/01/13 02:03:28;;;;;;;441.40;39.65;;;;;;;;;;4958105;28;20045;-90
2024/01/13 02:05:55;;;;;;;395.13;36.03;;;;;;;;;;4965603;28;20156;-90
2024/01/13 02:08:22;;;;;;;521.75;48.35;;;;;;;;;;4967078;28;20037;-91
2024/01/13 02:11:04;;;;;;;437.45;41.83;;;;;;;;;;4962377;28;20811;-89
2024/01/13 02:13:31;;;;;;;532.60;50.33;;;;;;;;;;4929329;28;21057;-89
2024/01/13 02:15:57;;;;;;;348.05;32.35;;;;;;;;;;4956501;28;20044;-85
2024/01/13 02:18:24;;;;;;;539.72;50.25;;;;;;;;;;4940635;28;20033;-88
2024/01/13 02:21:04;;;;;;;552.22;52.60;;;;;;;;;;4964876;28;20041;-90
2024/01/13 02:23:31;;;;;;;564.53;53.20;;;;;;;;;;4945942;28;20033;-91
2024/01/13 02:25:57;;;;;;;519.40;47.92;;;;;;;;;;4941899;28;20159;-91
2024/01/13 02:28:24;;;;;;;544.85;49.83;;;;;;;;;;4927029;28;20045;-91
2024/01/13 02:31:08;;;;;;;419.55;37.60;;;;;;;;;;4946973;28;20052;-89
2024/01/13 02:33:34;;;;;;;470.02;43.65;;;;;;;;;;4936705;28;20045;-90
2024/01/13 02:36:01;;;;;;;391.05;34.55;;;;;;;;;;4966856;28;20038;-90
2024/01/13 02:38:28;;;;;;;378.30;33.40;;;;;;;;;;4957982;28;20045;-89
2024/01/13 02:41:03;;;;;;;450.13;41.20;;;;;;;;;;4942393;28;20139;-89
2024/01/13 02:43:30;;;;;;;536.78;49.70;;;;;;;;;;4951290;28;20067;-88
2024/01/13 02:45:57;;;;;;;505.17;45.22;;;;;;;;;;4958435;28;20048;-89
2024/01/13 02:48:23;;;;;;;472.02;42.00;;;;;;;;;;4952444;28;20310;-90
2024/01/13 02:51:05;;;;;;;530.50;49.00;;;;;;;;;;4953753;28;20266;-90
2024/01/13 02:53:31;;;;;;;594.92;55.95;;;;;;;;;;4922446;28;20945;-89
2024/01/13 02:55:58;;;;;;;617.83;58.75;;;;;;;;;;4929441;28;20813;-90
2024/01/13 02:58:27;;;;;;;559.17;52.65;;;;;;;;;;4932137;28;20056;-89
2024/01/13 03:01:08;;;;;;;505.90;46.15;;;;;;;;;;4942632;28;20214;-90
2024/01/13 03:03:35;;;;;;;668.55;63.15;;;;;;;;;;4949202;28;20981;-89
2024/01/13 03:06:03;;;;;;;553.60;50.83;;;;;;;;;;4929354;28;20049;-90
2024/01/13 03:08:30;;;;;;;603.70;57.03;;;;;;;;;;4950518;28;20190;-89
2024/01/13 03:11:07;;;;;;;560.95;50.80;;;;;;;;;;4949678;28;20543;-89
2024/01/13 03:13:34;;;;;;;750.20;73.75;;;;;;;;;;4938180;28;20562;-88
2024/01/13 03:16:01;;;;;;;603.05;55.60;;;;;;;;;;4947853;28;20052;-89
2024/01/13 03:18:28;;;;;;;628.65;58.33;;;;;;;;;;4941452;28;20036;-89
2024/01/13 03:21:05;;;;;;;568.50;52.95;;;;;;;;;;4952875;28;20993;-89
2024/01/13 03:23:32;;;;;;;560.05;50.47;;;;;;;;;;4954464;28;20130;-90
2024/01/13 03:26:00;;;;;;;466.30;42.35;;;;;;;;;;4969444;28;20113;-89
2024/01/13 03:28:27;;;;;;;482.35;43.50;;;;;;;;;;4966092;28;20192;-90
2024/01/13 03:31:06;;;;;;;427.58;37.63;;;;;;;;;;4971474;28;20040;-89
2024/01/13 03:33:33;;;;;;;391.08;35.78;;;;;;;;;;4967095;28;20052;-89
2024/01/13 03:36:00;;;;;;;380.67;34.60;;;;;;;;;;4974915;28;20287;-90
2024/01/13 03:38:27;;;;;;;353.27;31.27;;;;;;;;;;4983854;28;20216;-89
2024/01/13 03:41:07;;;;;;;487.73;45.35;;;;;;;;;;4975757;28;20906;-89
2024/01/13 03:43:33;;;;;;;511.75;46.78;;;;;;;;;;4978409;28;20033;-89
2024/01/13 03:46:00;;;;;;;503.65;46.03;;;;;;;;;;4983463;28;20075;-90
2024/01/13 03:48:27;;;;;;;497.40;44.50;;;;;;;;;;4968286;28;20398;-89
2024/01/13 03:50:54;;;;;;;469.27;41.33;;;;;;;;;;4975176;28;20152;-91
2024/01/13 03:53:20;;;;;;;551.55;51.30;;;;;;;;;;4954727;28;20035;-89
2024/01/13 03:55:47;;;;;;;570.90;52.28;;;;;;;;;;4963787;28;20041;-89
2024/01/13 03:58:14;;;;;;;666.40;63.00;;;;;;;;;;4926119;28;20052;-89
2024/01/13 04:00:41;;;;;;;585.95;54.83;;;;;;;;;;4951810;28;20103;-89
2024/01/13 04:03:09;;;;;;;649.03;62.47;;;;;;;;;;4958216;28;20053;-89
2024/01/13 04:05:35;;;;;;;694.10;67.65;;;;;;;;;;4929648;28;20041;-89
2024/01/13 04:08:03;;;;;;;621.90;58.92;;;;;;;;;;4952489;28;20043;-90
2024/01/13 04:10:30;;;;;;;628.60;60.40;;;;;;;;;;4926901;28;20034;-89
2024/01/13 04:12:57;;;;;;;682.58;66.82;;;;;;;;;;4948517;28;20995;-90
2024/01/13 04:15:23;;;;;;;666.92;64.32;;;;;;;;;;4942361;28;20160;-89
2024/01/13 04:17:50;;;;;;;643.35;61.95;;;;;;;;;;4942696;28;20139;-89
2024/01/13 04:20:17;;;;;;;720.72;71.03;;;;;;;;;;4946223;28;20230;-90
2024/01/13 04:22:44;;;;;;;718.65;71.43;;;;;;;;;;4935140;28;20116;-90
2024/01/13 04:25:11;;;;;;;729.40;71.90;;;;;;;;;;4937782;28;20894;-88
2024/01/13 04:27:38;;;;;;;835.35;84.30;;;;;;;;;;4932977;28;20034;-90
2024/01/13 04:30:05;;;;;;;734.00;70.90;;;;;;;;;;4933316;28;20143;-89
2024/01/13 04:32:31;;;;;;;752.05;75.05;;;;;;;;;;4936108;28;20033;-90
2024/01/13 04:34:58;;;;;;;755.22;75.35;;;;;;;;;;4929486;28;21200;-91
2024/01/13 04:37:25;;;;;;;699.00;69.03;;;;;;;;;;4937226;28;21101;-89
2024/01/13 04:39:51;;;;;;;721.42;71.55;;;;;;;;;;4923878;28;20160;-89
2024/01/13 04:42:18;;;;;;;737.97;73.18;;;;;;;;;;4932120;28;20556;-88
2024/01/13 04:44:45;;;;;;;729.60;70.88;;;;;;;;;;4909976;28;20048;-89
2024/01/13 04:47:11;;;;;;;718.60;72.25;;;;;;;;;;4931718;28;20293;-88
2024/01/13 04:49:38;;;;;;;829.60;84.22;;;;;;;;;;4935915;28;20140;-89
2024/01/13 04:52:05;;;;;;;756.70;75.15;;;;;;;;;;4925176;28;20078;-88
2024/01/13 04:54:31;;;;;;;758.10;76.13;;;;;;;;;;4912720;28;20063;-89
2024/01/13 04:57:00;;;;;;;819.10;83.13;;;;;;;;;;4909675;28;21087;-89
2024/01/13 04:59:27;;;;;;;727.58;71.72;;;;;;;;;;4929776;28;20041;-89
2024/01/13 05:01:54;;;;;;;722.33;72.18;;;;;;;;;;4934832;28;20092;-89
2024/01/13 05:04:20;;;;;;;740.45;74.38;;;;;;;;;;4911257;28;20042;-89
2024/01/13 05:06:47;;;;;;;739.70;74.88;;;;;;;;;;4915200;28;20044;-89
2024/01/13 05:09:14;;;;;;;765.38;79.07;;;;;;;;;;4933563;28;20045;-89
2024/01/13 05:11:41;;;;;;;830.70;84.70;;;;;;;;;;4931818;28;20649;-88
2024/01/13 05:14:08;;;;;;;784.33;79.75;;;;;;;;;;4927223;28;20045;-89
2024/01/13 05:16:34;;;;;;;789.92;79.93;;;;;;;;;;4932385;28;20108;-89
2024/01/13 05:19:01;;;;;;;795.83;83.28;;;;;;;;;;4935478;28;20048;-89
2024/01/13 05:21:28;;;;;;;730.03;71.90;;;;;;;;;;4930467;28;21109;-89
2024/01/13 05:23:55;;;;;;;708.55;69.53;;;;;;;;;;4939373;28;20037;-90
2024/01/13 05:26:21;;;;;;;778.47;80.05;;;;;;;;;;4930690;28;20056;-89
2024/01/13 05:28:48;;;;;;;725.95;75.00;;;;;;;;;;4935040;28;20860;-89
2024/01/13 05:31:15;;;;;;;769.13;80.20;;;;;;;;;;4940233;28;20914;-89
2024/01/13 05:33:42;;;;;;;811.45;83.75;;;;;;;;;;4932467;28;20108;-89
2024/01/13 05:36:10;;;;;;;731.80;74.13;;;;;;;;;;4941046;28;20144;-89
2024/01/13 05:38:37;;;;;;;765.38;76.55;;;;;;;;;;4923326;28;20228;-89
2024/01/13 05:41:03;;;;;;;793.15;81.55;;;;;;;;;;4935000;28;20138;-90
2024/01/13 05:43:30;;;;;;;745.75;73.75;;;;;;;;;;4916167;28;20905;-89
2024/01/13 05:45:57;;;;;;;777.17;79.50;;;;;;;;;;4911469;28;20046;-90
2024/01/13 05:48:23;;;;;;;782.00;79.63;;;;;;;;;;4913209;28;20899;-88
2024/01/13 05:50:50;;;;;;;810.17;84.10;;;;;;;;;;4925570;28;20136;-89
2024/01/13 05:53:17;;;;;;;767.85;78.60;;;;;;;;;;4933609;28;20045;-89
2024/01/13 05:55:43;;;;;;;765.65;76.30;;;;;;;;;;4928645;28;20546;-88
2024/01/13 05:58:10;;;;;;;775.65;79.15;;;;;;;;;;4932447;28;20048;-87
2024/01/13 06:00:37;;;;;;;751.55;75.13;;;;;;;;;;4918222;28;20064;-89
2024/01/13 06:03:04;;;;;;;866.83;89.75;;;;;;;;;;4929328;28;20056;-88
2024/01/13 06:05:31;;;;;;;698.33;71.45;;;;;;;;;;4947294;28;20045;-87
2024/01/13 06:07:58;;;;;;;598.78;57.63;;;;;;;;;;4931895;28;20049;-90
2024/01/13 06:10:26;;;;;;;628.97;61.60;;;;;;;;;;4954120;28;20126;-89
2024/01/13 06:12:54;;;;;;;567.50;52.85;;;;;;;;;;4937349;28;20922;-89
2024/01/13 06:15:21;;;;;;;608.65;58.45;;;;;;;;;;4950104;28;20132;-88
2024/01/13 06:17:48;;;;;;;624.38;60.47;;;;;;;;;;4956160;28;20037;-88
2024/01/13 06:20:15;;;;;;;695.53;68.65;;;;;;;;;;4939411;28;20041;-88
2024/01/13 06:22:41;;;;;;;683.65;68.72;;;;;;;;;;4949361;28;20037;-89
2024/01/13 06:25:08;;;;;;;726.70;71.93;;;;;;;;;;4954089;28;20040;-88
2024/01/13 06:27:35;;;;;;;733.63;73.45;;;;;;;;;;4942205;28;20047;-89
2024/01/13 06:30:02;;;;;;;772.58;78.40;;;;;;;;;;4935116;28;21111;-87
2024/01/13 06:32:29;;;;;;;751.30;75.97;;;;;;;;;;4933024;28;20937;-89
2024/01/13 06:34:56;;;;;;;680.63;66.40;;;;;;;;;;4943211;28;20080;-90
2024/01/13 06:37:26;;;;;;;748.67;76.00;;;;;;;;;;4926594;28;20126;-88
2024/01/13 06:39:52;;;;;;;771.13;78.85;;;;;;;;;;4933434;28;20140;-89
2024/01/13 06:42:19;;;;;;;890.00;92.28;;;;;;;;;;4924955;28;20049;-87
2024/01/13 06:44:46;;;;;;;873.85;91.20;;;;;;;;;;4902681;28;20047;-87
2024/01/13 06:47:13;;;;;;;1062.95;115.57;;;;;;;;;;4907087;28;20041;-87
2024/01/13 06:49:39;;;;;;;1010.83;106.00;;;;;;;;;;4909634;28;20203;-88
2024/01/13 06:52:09;;;;;;;992.60;103.70;;;;;;;;;;4926987;28;20543;-86
2024/01/13 06:54:35;;;;;;;793.15;81.78;;;;;;;;;;4924679;28;20038;-87
2024/01/13 06:57:02;;;;;;;756.80;77.03;;;;;;;;;;4930177;28;20122;-88
2024/01/13 06:59:29;;;;;;;869.25;90.03;;;;;;;;;;4912022;28;20847;-89
2024/01/13 07:01:55;;;;;;;749.75;75.00;;;;;;;;;;4923677;28;21029;-86
2024/01/13 07:04:22;;;;;;;816.65;82.93;;;;;;;;;;4928979;28;20136;-87
2024/01/13 07:06:49;;;;;;;790.63;78.47;;;;;;;;;;4917506;28;20056;-88
2024/01/13 07:09:18;;;;;;;872.75;91.38;;;;;;;;;;4926945;28;20051;-87
2024/01/13 07:11:49;;;;;;;936.58;99.20;;;;;;;;;;4909547;28;20051;-87
2024/01/13 07:14:16;;;;;;;867.35;89.95;;;;;;;;;;4924515;28;20037;-87
2024/01/13 07:16:43;;;;;;;665.72;64.55;;;;;;;;;;4939343;28;20147;-88
2024/01/13 07:19:09;;;;;;;640.35;61.83;;;;;;;;;;4944246;28;20033;-88
2024/01/13 07:21:36;;;;;;;671.00;65.78;;;;;;;;;;4949083;28;20037;-90
2024/01/13 07:24:08;;;;;;;731.63;73.28;;;;;;;;;;4937497;28;20041;-89
2024/01/13 07:26:39;;;;;;;635.08;61.22;;;;;;;;;;4949357;28;20033;-89
2024/01/13 07:29:05;;;;;;;688.42;68.93;;;;;;;;;;4945718;28;20045;-89
2024/01/13 07:31:33;;;;;;;652.38;63.38;;;;;;;;;;4941867;28;20037;-90
2024/01/13 07:34:00;;;;;;;632.63;61.28;;;;;;;;;;4951852;28;21127;-90
2024/01/13 07:36:27;;;;;;;727.45;73.00;;;;;;;;;;4930440;28;20434;-86
2024/01/13 07:38:54;;;;;;;631.25;61.35;;;;;;;;;;4954779;28;20151;-85
2024/01/13 07:41:20;;;;;;;599.22;56.83;;;;;;;;;;4946914;28;20041;-87
2024/01/13 07:43:47;;;;;;;786.45;80.53;;;;;;;;;;4945275;28;20052;-86
2024/01/13 07:46:13;;;;;;;758.05;76.90;;;;;;;;;;4938372;28;20847;-86
2024/01/13 07:48:40;;;;;;;676.45;68.03;;;;;;;;;;4937631;28;20384;-86
2024/01/13 07:51:08;;;;;;;786.83;81.57;;;;;;;;;;4940693;28;20048;-87
2024/01/13 07:53:47;;;;;;;699.47;71.20;;;;;;;;;;4933866;28;20998;-87
2024/01/13 07:56:14;;;;;;;626.00;62.00;;;;;;;;;;4928750;28;20033;-89
2024/01/13 07:58:41;;;;;;;567.92;54.55;;;;;;;;;;4949944;28;20045;-88
2024/01/13 08:01:07;;;;;;;594.00;60.83;;;;;;;;;;4959911;28;20806;-87
2024/01/13 08:03:45;;;;;;;388.52;39.33;;;;;;;;;;4976750;28;20036;-92
2024/01/13 08:06:13;;;;;;;619.67;62.92;;;;;;;;;;4981767;28;20905;-87
2024/01/13 08:08:39;;;;;;;655.25;71.28;;;;;;;;;;4957948;28;20833;-87
2024/01/13 08:11:06;;;;;;;613.15;67.88;;;;;;;;;;4955442;28;20053;-90
2024/01/13 08:13:34;;;;;;;566.30;60.65;;;;;;;;;;4966184;28;20068;-90
2024/01/13 08:16:00;;;;;;;628.17;67.93;;;;;;;;;;4952514;28;20825;-89
2024/01/13 08:18:27;;;;;;;605.47;64.72;;;;;;;;;;4952228;28;20109;-88
2024/01/13 08:20:55;;;;;;;587.83;60.30;;;;;;;;;;4950311;28;20052;-90
2024/01/13 08:23:21;;;;;;;349.08;37.40;;;;;;;;;;4974340;28;20049;-88
2024/01/13 08:25:48;;;;;;;304.50;33.35;;;;;;;;;;4993971;28;20810;-90
2024/01/13 08:28:14;;;;;;;188.80;21.55;;;;;;;;;;4997423;28;20037;-90
2024/01/13 08:30:41;;;;;;;91.03;14.98;;;;;;;;;;5021761;28;20820;-91
2024/01/13 08:33:08;;;;;;;175.85;22.88;;;;;;;;;;5021610;28;20507;-91
2024/01/13 08:35:34;;;;;;;319.35;32.60;;;;;;;;;;4957527;28;20048;-90
2024/01/13 08:38:01;;;;;;;341.13;36.47;;;;;;;;;;4998652;28;20033;-92
2024/01/13 08:40:31;;;;;;;403.20;40.08;;;;;;;;;;4977565;28;20040;-92
2024/01/13 08:43:00;;;;;;;490.85;47.70;;;;;;;;;;4988449;28;20037;-90
2024/01/13 08:45:29;;;;;;;412.58;41.38;;;;;;;;;;4952828;28;20857;-87
2024/01/13 08:48:02;;;;;;;161.35;22.02;;;;;;;;;;5000391;28;20496;-93
2024/01/13 08:50:32;;;;;;;339.92;35.35;;;;;;;;;;4988419;28;20053;-91
2024/01/13 08:53:05;;;;;;;409.60;39.03;;;;;;;;;;4987966;28;20136;-92
2024/01/13 09:45:38;;;;;;;187.90;22.45;;;;;;;;;;5533140;23;20429;-93
2024/01/13 16:16:10;;;;;;;781.78;87.70;;;;;;;;;;4672969;30;20910;-88
2024/01/13 16:18:42;;;;;;;676.03;73.53;;;;;;;;;;4677678;30;20062;-91
2024/01/13 16:21:12;;;;;;;713.42;77.40;;;;;;;;;;4670179;30;20158;-90
2024/01/13 16:23:41;;;;;;;376.80;42.50;;;;;;;;;;4716160;30;20040;-91
2024/01/13 16:26:10;;;;;;;165.93;26.48;;;;;;;;;;4739758;29;20132;-94
2024/01/13 16:28:52;;;;;;;393.02;48.20;;;;;;;;;;4731150;30;20119;-91
2024/01/13 16:31:22;;;;;;;535.67;54.92;;;;;;;;;;4707364;30;20062;-91
2024/01/13 16:33:53;;;;;;;202.15;25.25;;;;;;;;;;4756325;29;20046;-91
2024/01/13 16:36:30;;;;;;;277.70;31.15;;;;;;;;;;4760885;29;20624;-91
2024/01/13 16:38:57;;;;;;;204.35;24.55;;;;;;;;;;4833618;29;20453;-89
2024/01/13 16:41:26;;;;;;;153.77;19.23;;;;;;;;;;4848109;29;20420;-89
2024/01/13 16:43:52;;;;;;;121.25;18.02;;;;;;;;;;4853507;29;20041;-90
2024/01/13 16:46:19;;;;;;;129.70;19.15;;;;;;;;;;4855385;29;20259;-90
2024/01/13 16:48:48;;;;;;;61.60;14.18;;;;;;;;;;4851693;29;20057;-90
2024/01/13 16:55:03;;;;;;;145.05;21.63;;;;;;;;;;4862984;29;20045;-90
2024/01/13 16:57:48;;;;;;;132.90;20.95;;;;;;;;;;4849718;29;20052;-91
2024/01/13 17:00:47;;;;;;;121.40;18.80;;;;;;;;;;4848400;29;20041;-94
2024/01/13 17:08:02;;;;;;;113.07;17.30;;;;;;;;;;4812849;29;20158;-92
2024/01/13 17:14:46;;;;;;;166.73;18.77;;;;;;;;;;4839394;29;20501;-92
2024/01/13 17:17:49;;;;;;;116.35;15.85;;;;;;;;;;4837429;29;20061;-92
2024/01/13 17:20:34;;;;;;;121.10;18.15;;;;;;;;;;4850993;29;20398;-91
2024/01/13 17:23:39;;;;;;;;;;;;;;;;;;;;;
2024/01/13 17:26:37;;;;;;;91.65;20.63;;;;;;;;;;4874478;29;20131;-91
2024/01/13 17:29:18;;;;;;;134.93;22.33;;;;;;;;;;4858214;29;20033;-88
2024/01/13 17:31:47;;;;;;;80.88;18.67;;;;;;;;;;4877746;29;20067;-92
2024/01/13 17:34:24;;;;;;;105.88;19.58;;;;;;;;;;4845180;29;20057;-89
2024/01/13 17:36:51;;;;;;;94.90;18.67;;;;;;;;;;4877228;29;20124;-90
2024/01/13 17:39:18;;;;;;;84.47;17.05;;;;;;;;;;4861166;29;20720;-91
2024/01/13 17:41:45;;;;;;;105.07;18.52;;;;;;;;;;4856215;29;20054;-89
2024/01/13 17:44:12;;;;;;;132.68;19.92;;;;;;;;;;4871470;29;20105;-90
2024/01/13 17:46:38;;;;;;;86.97;17.58;;;;;;;;;;4873539;29;20041;-91
2024/01/13 17:49:06;;;;;;;121.03;19.65;;;;;;;;;;4847166;29;22254;-93
2024/01/13 17:51:35;;;;;;;121.55;18.77;;;;;;;;;;4853025;29;20067;-92
2024/01/13 17:54:08;;;;;;;96.90;16.77;;;;;;;;;;4857953;29;20521;-93
2024/01/13 17:59:54;;;;;;;120.57;20.17;;;;;;;;;;4875635;29;20487;-91
2024/01/13 18:02:21;;;;;;;96.05;19.85;;;;;;;;;;4877967;29;20041;-90
2024/01/13 18:04:48;;;;;;;76.25;17.17;;;;;;;;;;4855036;29;20732;-90
2024/01/13 18:07:15;;;;;;;98.25;18.63;;;;;;;;;;4872045;29;20120;-91
2024/01/13 18:09:42;;;;;;;57.50;15.43;;;;;;;;;;4876300;29;20053;-89
2024/01/13 18:12:11;;;;;;;84.53;17.65;;;;;;;;;;4877122;29;20033;-93
2024/01/13 18:14:38;;;;;;;93.00;18.25;;;;;;;;;;4853661;29;20029;-91
2024/01/13 18:17:05;;;;;;;105.05;17.80;;;;;;;;;;4855472;29;20057;-91
2024/01/13 18:19:31;;;;;;;80.15;16.27;;;;;;;;;;4875750;29;20044;-92
2024/01/13 18:21:58;;;;;;;107.18;17.73;;;;;;;;;;4857581;29;20040;-91
2024/01/13 18:24:26;;;;;;;63.90;14.77;;;;;;;;;;4877533;29;20124;-90
2024/01/13 18:26:53;;;;;;;116.32;17.73;;;;;;;;;;4861030;29;20044;-91
2024/01/13 18:29:23;;;;;;;123.63;15.68;;;;;;;;;;4877102;29;20120;-92
2024/01/13 18:31:50;;;;;;;53.80;12.50;;;;;;;;;;4845852;29;20093;-91
2024/01/13 18:34:19;;;;;;;84.47;15.30;;;;;;;;;;4856723;29;20071;-91
2024/01/13 18:36:48;;;;;;;90.20;15.27;;;;;;;;;;4844809;29;20063;-92
2024/01/13 18:39:26;;;;;;;61.88;13.93;;;;;;;;;;4873685;29;20037;-90
2024/01/13 19:10:10;;;;;;;108.55;15.07;;;;;;;;;;4725932;30;20401;-92
2024/01/13 19:14:29;;;;;;;178.57;19.52;;;;;;;;;;4717589;30;20072;-93
2024/01/13 19:21:00;;;;;;;61.75;10.45;;;;;;;;;;4667124;30;20513;-90
2024/01/13 19:27:39;;;;;;;51.97;7.15;;;;;;;;;;4758433;30;20070;-93
2024/01/13 20:03:02;;;;;;;92.88;12.40;;;;;;;;;;4776875;29;20169;-92
2024/01/13 20:05:48;;;;;;;104.70;12.35;;;;;;;;;;4693248;30;20552;-91
2024/01/13 20:13:09;;;;;;;157.85;17.30;;;;;;;;;;4780396;30;20046;-91
2024/01/13 20:16:09;;;;;;;82.07;9.45;;;;;;;;;;4765028;30;20140;-91
2024/01/13 20:23:48;;;;;;;536.30;49.10;;;;;;;;;;4693318;30;20303;-91
2024/01/13 20:26:32;;;;;;;498.02;44.45;;;;;;;;;;4669380;30;20155;-91
2024/01/13 21:08:36;;;;;;;;;;;;;;;;;;;;;
